sensor_id;sensor_type;location;lat;lon;timestamp;pressure;altitude;pressure_sealevel;temperature;humidity
67803;BME280;54601;51.378;-1.342;2022-12-20T00:00:30;99017.87;;;18.22;37.72
67803;BME280;54601;51.378;-1.342;2022-12-20T00:02:55;99015.84;;;17.64;38.69
67803;BME280;54601;51.378;-1.342;2022-12-20T00:05:21;99018.87;;;17.56;38.52
67803;BME280;54601;51.378;-1.342;2022-12-20T00:07:46;99012.59;;;18.54;37.82
67803;BME280;54601;51.378;-1.342;2022-12-20T00:10:11;99003.56;;;18.45;38.27
67803;BME280;54601;51.378;-1.342;2022-12-20T00:12:36;99004.68;;;18.79;37.85
67803;BME280;54601;51.378;-1.342;2022-12-20T00:15:01;99012.52;;;18.70;37.66
67803;BME280;54601;51.378;-1.342;2022-12-20T00:17:26;98999.61;;;18.34;38.10
67803;BME280;54601;51.378;-1.342;2022-12-20T00:19:52;99000.82;;;18.28;37.97
67803;BME280;54601;51.378;-1.342;2022-12-20T00:22:17;98999.51;;;17.79;38.00
67803;BME280;54601;51.378;-1.342;2022-12-20T00:24:42;99002.06;;;18.14;37.93
67803;BME280;54601;51.378;-1.342;2022-12-20T00:27:07;99007.63;;;18.44;37.47
67803;BME280;54601;51.378;-1.342;2022-12-20T00:29:32;99005.17;;;18.45;37.45
67803;BME280;54601;51.378;-1.342;2022-12-20T00:31:58;99001.94;;;18.20;37.92
67803;BME280;54601;51.378;-1.342;2022-12-20T00:34:23;99007.18;;;18.64;37.46
67803;BME280;54601;51.378;-1.342;2022-12-20T00:36:48;99002.86;;;18.56;37.46
67803;BME280;54601;51.378;-1.342;2022-12-20T00:39:13;99000.89;;;18.55;37.86
67803;BME280;54601;51.378;-1.342;2022-12-20T00:41:38;99003.89;;;18.23;38.03
67803;BME280;54601;51.378;-1.342;2022-12-20T00:44:04;99004.71;;;18.27;37.81
67803;BME280;54601;51.378;-1.342;2022-12-20T00:46:29;98992.36;;;18.45;37.61
67803;BME280;54601;51.378;-1.342;2022-12-20T00:48:54;98996.44;;;18.17;38.04
67803;BME280;54601;51.378;-1.342;2022-12-20T00:51:21;99004.10;;;17.23;39.23
67803;BME280;54601;51.378;-1.342;2022-12-20T00:53:45;99000.27;;;18.27;37.85
67803;BME280;54601;51.378;-1.342;2022-12-20T00:56:10;98997.43;;;18.27;38.01
67803;BME280;54601;51.378;-1.342;2022-12-20T00:58:37;98997.35;;;18.48;37.58
67803;BME280;54601;51.378;-1.342;2022-12-20T01:01:00;99000.95;;;18.52;37.58
67803;BME280;54601;51.378;-1.342;2022-12-20T01:03:26;99006.82;;;18.15;37.92
67803;BME280;54601;51.378;-1.342;2022-12-20T01:05:51;98992.17;;;18.30;37.71
67803;BME280;54601;51.378;-1.342;2022-12-20T01:08:15;98987.36;;;17.34;39.11
67803;BME280;54601;51.378;-1.342;2022-12-20T01:10:41;98981.19;;;17.54;38.72
67803;BME280;54601;51.378;-1.342;2022-12-20T01:13:06;98985.41;;;18.06;38.04
67803;BME280;54601;51.378;-1.342;2022-12-20T01:15:31;98977.47;;;18.38;37.49
67803;BME280;54601;51.378;-1.342;2022-12-20T01:17:56;98973.43;;;17.75;38.43
67803;BME280;54601;51.378;-1.342;2022-12-20T01:20:21;98958.87;;;18.48;37.48
67803;BME280;54601;51.378;-1.342;2022-12-20T01:22:47;98973.88;;;18.28;37.42
67803;BME280;54601;51.378;-1.342;2022-12-20T01:25:12;98963.02;;;18.00;38.43
67803;BME280;54601;51.378;-1.342;2022-12-20T01:27:37;98952.61;;;17.99;38.19
67803;BME280;54601;51.378;-1.342;2022-12-20T01:30:03;98961.45;;;18.27;37.97
67803;BME280;54601;51.378;-1.342;2022-12-20T01:32:27;98958.15;;;17.95;37.88
67803;BME280;54601;51.378;-1.342;2022-12-20T01:34:53;98965.17;;;17.93;38.00
67803;BME280;54601;51.378;-1.342;2022-12-20T01:37:18;98969.15;;;17.52;38.71
67803;BME280;54601;51.378;-1.342;2022-12-20T01:39:43;98958.13;;;18.08;38.12
67803;BME280;54601;51.378;-1.342;2022-12-20T01:42:10;98960.78;;;17.90;38.34
67803;BME280;54601;51.378;-1.342;2022-12-20T01:46:58;98959.52;;;18.02;37.93
67803;BME280;54601;51.378;-1.342;2022-12-20T01:49:27;98952.04;;;17.98;38.05
67803;BME280;54601;51.378;-1.342;2022-12-20T01:51:54;98957.22;;;17.85;37.99
67803;BME280;54601;51.378;-1.342;2022-12-20T01:54:17;98950.56;;;18.07;37.76
67803;BME280;54601;51.378;-1.342;2022-12-20T01:56:42;98963.29;;;17.74;38.28
67803;BME280;54601;51.378;-1.342;2022-12-20T01:59:05;98953.82;;;18.42;37.64
67803;BME280;54601;51.378;-1.342;2022-12-20T02:01:30;98950.77;;;17.70;38.39
67803;BME280;54601;51.378;-1.342;2022-12-20T02:03:55;98955.41;;;17.83;38.28
67803;BME280;54601;51.378;-1.342;2022-12-20T02:06:22;98950.38;;;18.48;37.46
67803;BME280;54601;51.378;-1.342;2022-12-20T02:08:47;98936.14;;;18.18;37.75
67803;BME280;54601;51.378;-1.342;2022-12-20T02:11:21;98933.15;;;18.02;37.89
67803;BME280;54601;51.378;-1.342;2022-12-20T02:13:42;98928.51;;;18.13;37.80
67803;BME280;54601;51.378;-1.342;2022-12-20T02:16:02;98934.63;;;18.00;38.01
67803;BME280;54601;51.378;-1.342;2022-12-20T02:18:29;98927.58;;;17.35;38.92
67803;BME280;54601;51.378;-1.342;2022-12-20T02:23:26;98918.88;;;17.13;39.43
67803;BME280;54601;51.378;-1.342;2022-12-20T02:25:45;98913.84;;;17.93;38.03
67803;BME280;54601;51.378;-1.342;2022-12-20T02:28:14;98917.14;;;17.64;38.48
67803;BME280;54601;51.378;-1.342;2022-12-20T02:30:34;98900.46;;;17.94;38.42
67803;BME280;54601;51.378;-1.342;2022-12-20T02:32:59;98889.38;;;17.63;38.78
67803;BME280;54601;51.378;-1.342;2022-12-20T02:35:25;98890.55;;;18.11;38.16
67803;BME280;54601;51.378;-1.342;2022-12-20T02:37:49;98881.92;;;17.33;39.05
67803;BME280;54601;51.378;-1.342;2022-12-20T02:40:14;98879.92;;;17.59;38.94
67803;BME280;54601;51.378;-1.342;2022-12-20T02:42:38;98878.42;;;18.07;38.16
67803;BME280;54601;51.378;-1.342;2022-12-20T02:45:06;98873.68;;;18.04;37.92
67803;BME280;54601;51.378;-1.342;2022-12-20T02:47:30;98870.22;;;17.39;38.73
67803;BME280;54601;51.378;-1.342;2022-12-20T02:49:54;98867.14;;;17.65;38.78
67803;BME280;54601;51.378;-1.342;2022-12-20T02:52:20;98866.36;;;17.36;39.06
67803;BME280;54601;51.378;-1.342;2022-12-20T02:54:43;98873.74;;;17.68;38.41
67803;BME280;54601;51.378;-1.342;2022-12-20T02:57:13;98890.40;;;17.54;38.71
67803;BME280;54601;51.378;-1.342;2022-12-20T02:59:38;98891.52;;;18.16;37.69
67803;BME280;54601;51.378;-1.342;2022-12-20T03:01:59;98869.32;;;17.59;38.90
67803;BME280;54601;51.378;-1.342;2022-12-20T03:04:28;98876.64;;;17.49;39.15
67803;BME280;54601;51.378;-1.342;2022-12-20T03:06:55;98857.42;;;18.10;38.27
67803;BME280;54601;51.378;-1.342;2022-12-20T03:09:15;98858.60;;;17.13;39.67
67803;BME280;54601;51.378;-1.342;2022-12-20T03:11:40;98854.27;;;18.10;38.08
67803;BME280;54601;51.378;-1.342;2022-12-20T03:14:05;98837.16;;;17.81;38.12
67803;BME280;54601;51.378;-1.342;2022-12-20T03:16:30;98830.55;;;17.52;38.60
67803;BME280;54601;51.378;-1.342;2022-12-20T03:18:55;98827.45;;;17.75;38.18
67803;BME280;54601;51.378;-1.342;2022-12-20T03:21:20;98835.54;;;17.40;38.84
67803;BME280;54601;51.378;-1.342;2022-12-20T03:23:46;98816.64;;;16.81;39.64
67803;BME280;54601;51.378;-1.342;2022-12-20T03:26:11;98814.98;;;17.74;38.29
67803;BME280;54601;51.378;-1.342;2022-12-20T03:28:36;98820.09;;;17.51;39.06
67803;BME280;54601;51.378;-1.342;2022-12-20T03:31:01;98819.27;;;17.78;38.35
67803;BME280;54601;51.378;-1.342;2022-12-20T03:33:26;98808.47;;;17.88;38.16
67803;BME280;54601;51.378;-1.342;2022-12-20T03:35:51;98803.58;;;17.56;39.11
67803;BME280;54601;51.378;-1.342;2022-12-20T03:38:17;98785.90;;;17.72;38.74
67803;BME280;54601;51.378;-1.342;2022-12-20T03:40:42;98797.37;;;17.14;39.45
67803;BME280;54601;51.378;-1.342;2022-12-20T03:43:07;98804.94;;;17.82;38.68
67803;BME280;54601;51.378;-1.342;2022-12-20T03:45:32;98802.09;;;17.56;38.81
67803;BME280;54601;51.378;-1.342;2022-12-20T03:47:57;98804.09;;;17.80;38.86
67803;BME280;54601;51.378;-1.342;2022-12-20T03:50:22;98804.40;;;17.07;39.48
67803;BME280;54601;51.378;-1.342;2022-12-20T03:52:48;98803.88;;;17.74;38.41
67803;BME280;54601;51.378;-1.342;2022-12-20T03:55:13;98798.85;;;17.75;38.46
67803;BME280;54601;51.378;-1.342;2022-12-20T03:57:38;98790.68;;;17.12;39.43
67803;BME280;54601;51.378;-1.342;2022-12-20T04:00:04;98796.08;;;17.85;38.12
67803;BME280;54601;51.378;-1.342;2022-12-20T04:02:28;98795.31;;;17.31;39.50
67803;BME280;54601;51.378;-1.342;2022-12-20T04:04:53;98794.00;;;17.19;39.42
67803;BME280;54601;51.378;-1.342;2022-12-20T04:07:19;98818.10;;;17.03;39.56
67803;BME280;54601;51.378;-1.342;2022-12-20T04:09:44;98811.96;;;17.01;39.56
67803;BME280;54601;51.378;-1.342;2022-12-20T04:12:09;98804.56;;;17.46;38.91
67803;BME280;54601;51.378;-1.342;2022-12-20T04:14:34;98808.34;;;17.66;38.25
67803;BME280;54601;51.378;-1.342;2022-12-20T04:16:59;98797.42;;;17.94;38.13
67803;BME280;54601;51.378;-1.342;2022-12-20T04:19:25;98801.09;;;17.96;38.46
67803;BME280;54601;51.378;-1.342;2022-12-20T04:21:50;98801.29;;;17.19;39.38
67803;BME280;54601;51.378;-1.342;2022-12-20T04:24:15;98805.45;;;17.66;38.80
67803;BME280;54601;51.378;-1.342;2022-12-20T04:26:40;98820.59;;;17.38;39.06
67803;BME280;54601;51.378;-1.342;2022-12-20T04:29:05;98833.81;;;17.41;38.98
67803;BME280;54601;51.378;-1.342;2022-12-20T04:31:31;98853.32;;;18.15;38.37
67803;BME280;54601;51.378;-1.342;2022-12-20T04:33:56;98881.66;;;17.68;38.36
67803;BME280;54601;51.378;-1.342;2022-12-20T04:36:21;98902.46;;;17.78;38.46
67803;BME280;54601;51.378;-1.342;2022-12-20T04:38:46;98910.06;;;17.87;38.05
67803;BME280;54601;51.378;-1.342;2022-12-20T04:41:11;98916.99;;;17.86;37.98
67803;BME280;54601;51.378;-1.342;2022-12-20T04:43:36;98922.50;;;17.55;38.51
67803;BME280;54601;51.378;-1.342;2022-12-20T04:46:02;98933.64;;;17.29;38.83
67803;BME280;54601;51.378;-1.342;2022-12-20T04:48:27;98932.29;;;17.43;38.83
67803;BME280;54601;51.378;-1.342;2022-12-20T04:50:52;98938.80;;;17.60;38.21
67803;BME280;54601;51.378;-1.342;2022-12-20T04:53:17;98947.05;;;17.34;38.51
67803;BME280;54601;51.378;-1.342;2022-12-20T04:55:42;98951.92;;;17.64;38.37
67803;BME280;54601;51.378;-1.342;2022-12-20T04:58:08;98957.43;;;17.36;38.24
67803;BME280;54601;51.378;-1.342;2022-12-20T05:00:33;98970.36;;;17.42;38.40
67803;BME280;54601;51.378;-1.342;2022-12-20T05:02:59;98975.97;;;17.59;38.26
67803;BME280;54601;51.378;-1.342;2022-12-20T05:05:23;98980.95;;;16.92;38.85
67803;BME280;54601;51.378;-1.342;2022-12-20T05:07:49;98993.61;;;17.29;38.37
67803;BME280;54601;51.378;-1.342;2022-12-20T05:10:14;98994.99;;;17.61;37.93
67803;BME280;54601;51.378;-1.342;2022-12-20T05:12:39;99000.00;;;17.13;38.76
67803;BME280;54601;51.378;-1.342;2022-12-20T05:15:04;98999.36;;;17.34;38.07
67803;BME280;54601;51.378;-1.342;2022-12-20T05:17:29;99006.14;;;17.17;38.14
67803;BME280;54601;51.378;-1.342;2022-12-20T05:19:54;99013.89;;;17.15;38.39
67803;BME280;54601;51.378;-1.342;2022-12-20T05:22:19;99015.68;;;16.90;38.72
67803;BME280;54601;51.378;-1.342;2022-12-20T05:24:45;99010.00;;;17.26;38.33
67803;BME280;54601;51.378;-1.342;2022-12-20T05:27:10;99012.69;;;17.50;38.11
67803;BME280;54601;51.378;-1.342;2022-12-20T05:29:35;99022.28;;;17.38;38.20
67803;BME280;54601;51.378;-1.342;2022-12-20T05:32:00;99030.34;;;17.18;38.27
67803;BME280;54601;51.378;-1.342;2022-12-20T05:34:25;99024.51;;;17.37;38.00
67803;BME280;54601;51.378;-1.342;2022-12-20T05:36:51;99027.40;;;17.04;38.41
67803;BME280;54601;51.378;-1.342;2022-12-20T05:39:16;99030.22;;;16.60;38.75
67803;BME280;54601;51.378;-1.342;2022-12-20T05:41:41;99035.34;;;17.23;38.20
67803;BME280;54601;51.378;-1.342;2022-12-20T05:44:06;99040.36;;;17.28;38.05
67803;BME280;54601;51.378;-1.342;2022-12-20T05:46:31;99038.35;;;17.88;37.48
67803;BME280;54601;51.378;-1.342;2022-12-20T05:48:56;99042.24;;;17.37;37.95
67803;BME280;54601;51.378;-1.342;2022-12-20T05:51:22;99049.11;;;17.19;38.22
67803;BME280;54601;51.378;-1.342;2022-12-20T05:53:47;99058.31;;;17.13;38.07
67803;BME280;54601;51.378;-1.342;2022-12-20T05:56:12;99062.82;;;17.36;37.79
67803;BME280;54601;51.378;-1.342;2022-12-20T05:58:37;99067.58;;;17.28;37.80
67803;BME280;54601;51.378;-1.342;2022-12-20T06:01:04;99071.93;;;17.07;37.93
67803;BME280;54601;51.378;-1.342;2022-12-20T06:03:28;99076.44;;;17.00;37.92
67803;BME280;54601;51.378;-1.342;2022-12-20T06:05:53;99080.44;;;17.21;37.55
67803;BME280;54601;51.378;-1.342;2022-12-20T06:08:18;99084.29;;;16.95;38.08
67803;BME280;54601;51.378;-1.342;2022-12-20T06:10:43;99088.29;;;16.69;38.18
67803;BME280;54601;51.378;-1.342;2022-12-20T06:13:09;99089.69;;;16.69;38.13
67803;BME280;54601;51.378;-1.342;2022-12-20T06:15:34;99087.06;;;17.09;37.81
67803;BME280;54601;51.378;-1.342;2022-12-20T06:17:59;99096.16;;;16.65;38.30
67803;BME280;54601;51.378;-1.342;2022-12-20T06:20:24;99104.85;;;17.20;37.72
67803;BME280;54601;51.378;-1.342;2022-12-20T06:22:49;99114.82;;;16.42;38.29
67803;BME280;54601;51.378;-1.342;2022-12-20T06:25:14;99128.62;;;17.14;37.65
67803;BME280;54601;51.378;-1.342;2022-12-20T06:27:39;99134.76;;;16.90;37.45
67803;BME280;54601;51.378;-1.342;2022-12-20T06:30:06;99138.69;;;16.68;37.67
67803;BME280;54601;51.378;-1.342;2022-12-20T06:32:30;99144.11;;;16.82;37.88
67803;BME280;54601;51.378;-1.342;2022-12-20T06:34:55;99143.99;;;16.85;38.06
67803;BME280;54601;51.378;-1.342;2022-12-20T06:37:20;99156.77;;;17.04;37.34
67803;BME280;54601;51.378;-1.342;2022-12-20T06:39:45;99162.42;;;17.39;36.73
67803;BME280;54601;51.378;-1.342;2022-12-20T06:42:10;99168.11;;;17.31;36.54
67803;BME280;54601;51.378;-1.342;2022-12-20T06:44:36;99171.21;;;17.70;35.74
67803;BME280;54601;51.378;-1.342;2022-12-20T06:47:01;99171.69;;;18.07;35.64
67803;BME280;54601;51.378;-1.342;2022-12-20T06:49:26;99173.33;;;17.86;36.08
67803;BME280;54601;51.378;-1.342;2022-12-20T06:51:51;99179.01;;;17.94;36.31
67803;BME280;54601;51.378;-1.342;2022-12-20T06:54:16;99182.88;;;17.87;35.84
67803;BME280;54601;51.378;-1.342;2022-12-20T06:56:42;99189.52;;;18.44;35.70
67803;BME280;54601;51.378;-1.342;2022-12-20T06:59:07;99198.74;;;18.45;35.79
67803;BME280;54601;51.378;-1.342;2022-12-20T07:01:32;99200.96;;;18.25;36.02
67803;BME280;54601;51.378;-1.342;2022-12-20T07:03:57;99204.74;;;18.40;36.07
67803;BME280;54601;51.378;-1.342;2022-12-20T07:06:23;99212.74;;;18.66;36.20
67803;BME280;54601;51.378;-1.342;2022-12-20T07:08:47;99213.63;;;18.59;36.33
67803;BME280;54601;51.378;-1.342;2022-12-20T07:11:13;99225.33;;;18.36;36.46
67803;BME280;54601;51.378;-1.342;2022-12-20T07:13:38;99228.27;;;18.56;36.44
67803;BME280;54601;51.378;-1.342;2022-12-20T07:16:04;99233.86;;;18.21;36.43
67803;BME280;54601;51.378;-1.342;2022-12-20T07:18:29;99240.58;;;18.40;36.34
67803;BME280;54601;51.378;-1.342;2022-12-20T07:20:53;99245.66;;;18.56;36.36
67803;BME280;54601;51.378;-1.342;2022-12-20T07:23:18;99250.39;;;18.05;36.37
67803;BME280;54601;51.378;-1.342;2022-12-20T07:25:52;99254.77;;;18.09;36.34
67803;BME280;54601;51.378;-1.342;2022-12-20T07:28:09;99255.86;;;18.28;36.30
67803;BME280;54601;51.378;-1.342;2022-12-20T07:30:34;99260.34;;;18.23;36.27
67803;BME280;54601;51.378;-1.342;2022-12-20T07:32:59;99262.97;;;18.23;36.31
67803;BME280;54601;51.378;-1.342;2022-12-20T07:35:24;99269.75;;;18.52;36.27
67803;BME280;54601;51.378;-1.342;2022-12-20T07:37:49;99271.77;;;18.39;36.29
67803;BME280;54601;51.378;-1.342;2022-12-20T07:40:15;99276.06;;;18.01;36.25
67803;BME280;54601;51.378;-1.342;2022-12-20T07:42:40;99272.26;;;18.35;36.14
67803;BME280;54601;51.378;-1.342;2022-12-20T07:45:06;99284.93;;;18.27;36.31
67803;BME280;54601;51.378;-1.342;2022-12-20T07:47:30;99290.57;;;18.45;36.10
67803;BME280;54601;51.378;-1.342;2022-12-20T07:49:55;99294.98;;;18.47;36.04
67803;BME280;54601;51.378;-1.342;2022-12-20T07:52:23;99287.66;;;18.50;36.10
67803;BME280;54601;51.378;-1.342;2022-12-20T07:54:49;99287.47;;;18.48;36.02
67803;BME280;54601;51.378;-1.342;2022-12-20T07:57:12;99287.03;;;18.41;36.02
67803;BME280;54601;51.378;-1.342;2022-12-20T07:59:39;99292.96;;;18.42;36.07
67803;BME280;54601;51.378;-1.342;2022-12-20T08:02:01;99305.28;;;18.45;36.01
67803;BME280;54601;51.378;-1.342;2022-12-20T08:04:27;99315.36;;;18.46;35.99
67803;BME280;54601;51.378;-1.342;2022-12-20T08:06:54;99319.36;;;18.43;35.96
67803;BME280;54601;51.378;-1.342;2022-12-20T08:09:17;99328.81;;;18.35;35.97
67803;BME280;54601;51.378;-1.342;2022-12-20T08:11:44;99341.48;;;18.45;35.85
67803;BME280;54601;51.378;-1.342;2022-12-20T08:14:08;99342.68;;;18.36;35.80
67803;BME280;54601;51.378;-1.342;2022-12-20T08:16:33;99345.56;;;18.38;35.78
67803;BME280;54601;51.378;-1.342;2022-12-20T08:18:57;99357.55;;;18.44;35.75
67803;BME280;54601;51.378;-1.342;2022-12-20T08:21:23;99359.81;;;18.42;35.75
67803;BME280;54601;51.378;-1.342;2022-12-20T08:23:48;99361.17;;;18.48;35.72
67803;BME280;54601;51.378;-1.342;2022-12-20T08:26:13;99365.90;;;18.53;35.68
67803;BME280;54601;51.378;-1.342;2022-12-20T08:28:39;99372.48;;;18.56;35.65
67803;BME280;54601;51.378;-1.342;2022-12-20T08:31:05;99369.15;;;18.60;35.59
67803;BME280;54601;51.378;-1.342;2022-12-20T08:33:28;99370.19;;;18.60;35.54
67803;BME280;54601;51.378;-1.342;2022-12-20T08:35:56;99369.39;;;18.61;35.49
67803;BME280;54601;51.378;-1.342;2022-12-20T08:38:19;99369.98;;;18.62;35.48
67803;BME280;54601;51.378;-1.342;2022-12-20T08:40:44;99373.93;;;18.56;35.50
67803;BME280;54601;51.378;-1.342;2022-12-20T08:43:09;99375.29;;;18.51;35.48
67803;BME280;54601;51.378;-1.342;2022-12-20T08:45:34;99376.37;;;18.50;35.47
67803;BME280;54601;51.378;-1.342;2022-12-20T08:47:59;99375.31;;;18.44;35.47
67803;BME280;54601;51.378;-1.342;2022-12-20T08:50:25;99377.18;;;18.48;35.41
67803;BME280;54601;51.378;-1.342;2022-12-20T08:52:50;99380.14;;;18.43;35.36
67803;BME280;54601;51.378;-1.342;2022-12-20T08:55:15;99375.51;;;18.36;35.36
67803;BME280;54601;51.378;-1.342;2022-12-20T08:57:40;99379.83;;;18.34;35.22
67803;BME280;54601;51.378;-1.342;2022-12-20T09:00:06;99383.91;;;18.34;35.07
67803;BME280;54601;51.378;-1.342;2022-12-20T09:02:30;99386.96;;;18.40;35.07
67803;BME280;54601;51.378;-1.342;2022-12-20T09:04:55;99390.78;;;18.51;35.18
67803;BME280;54601;51.378;-1.342;2022-12-20T09:07:21;99395.34;;;18.08;34.93
67803;BME280;54601;51.378;-1.342;2022-12-20T09:09:46;99396.84;;;18.12;34.98
67803;BME280;54601;51.378;-1.342;2022-12-20T09:12:11;99404.17;;;18.19;34.84
67803;BME280;54601;51.378;-1.342;2022-12-20T09:14:36;99405.17;;;17.92;34.70
67803;BME280;54601;51.378;-1.342;2022-12-20T09:17:01;99408.48;;;18.07;34.46
67803;BME280;54601;51.378;-1.342;2022-12-20T09:19:26;99405.25;;;18.26;34.37
67803;BME280;54601;51.378;-1.342;2022-12-20T09:21:52;99405.70;;;17.92;34.31
67803;BME280;54601;51.378;-1.342;2022-12-20T09:24:17;99400.01;;;18.06;33.92
67803;BME280;54601;51.378;-1.342;2022-12-20T09:26:42;99399.99;;;17.80;34.39
67803;BME280;54601;51.378;-1.342;2022-12-20T09:29:07;99405.10;;;17.86;34.24
67803;BME280;54601;51.378;-1.342;2022-12-20T09:31:32;99405.21;;;17.94;34.42
67803;BME280;54601;51.378;-1.342;2022-12-20T09:33:58;99409.01;;;18.08;34.56
67803;BME280;54601;51.378;-1.342;2022-12-20T09:36:25;99407.57;;;18.34;34.42
67803;BME280;54601;51.378;-1.342;2022-12-20T09:38:48;99417.18;;;18.79;34.22
67803;BME280;54601;51.378;-1.342;2022-12-20T09:41:25;99425.23;;;18.51;34.23
67803;BME280;54601;51.378;-1.342;2022-12-20T09:43:38;99429.68;;;18.47;34.23
67803;BME280;54601;51.378;-1.342;2022-12-20T09:46:03;99430.19;;;18.45;34.24
67803;BME280;54601;51.378;-1.342;2022-12-20T09:48:31;99432.84;;;18.42;34.26
67803;BME280;54601;51.378;-1.342;2022-12-20T09:51:01;99433.40;;;18.50;34.29
67803;BME280;54601;51.378;-1.342;2022-12-20T09:53:27;99438.07;;;18.50;34.19
67803;BME280;54601;51.378;-1.342;2022-12-20T09:55:49;99440.27;;;18.62;34.05
67803;BME280;54601;51.378;-1.342;2022-12-20T09:58:24;99443.72;;;18.60;34.04
67803;BME280;54601;51.378;-1.342;2022-12-20T10:00:35;99450.76;;;18.55;34.13
67803;BME280;54601;51.378;-1.342;2022-12-20T10:03:01;99453.04;;;18.56;34.09
67803;BME280;54601;51.378;-1.342;2022-12-20T10:05:29;99452.69;;;18.56;34.09
67803;BME280;54601;51.378;-1.342;2022-12-20T10:07:54;99452.39;;;18.58;34.04
67803;BME280;54601;51.378;-1.342;2022-12-20T10:10:25;99454.38;;;18.50;34.15
67803;BME280;54601;51.378;-1.342;2022-12-20T10:12:45;99461.20;;;18.53;34.16
67803;BME280;54601;51.378;-1.342;2022-12-20T10:15:15;99466.50;;;18.54;34.14
67803;BME280;54601;51.378;-1.342;2022-12-20T10:17:38;99459.19;;;18.55;34.14
67803;BME280;54601;51.378;-1.342;2022-12-20T10:20:08;99459.92;;;18.54;34.11
67803;BME280;54601;51.378;-1.342;2022-12-20T10:22:25;99457.58;;;18.75;34.14
67803;BME280;54601;51.378;-1.342;2022-12-20T10:24:50;99461.70;;;18.55;34.08
67803;BME280;54601;51.378;-1.342;2022-12-20T10:27:14;99463.37;;;18.33;34.12
67803;BME280;54601;51.378;-1.342;2022-12-20T10:29:36;99471.73;;;18.74;34.19
67803;BME280;54601;51.378;-1.342;2022-12-20T10:32:04;99470.69;;;18.53;34.18
67803;BME280;54601;51.378;-1.342;2022-12-20T10:34:26;99462.97;;;18.54;34.09
67803;BME280;54601;51.378;-1.342;2022-12-20T10:39:17;99461.31;;;18.54;34.13
67803;BME280;54601;51.378;-1.342;2022-12-20T10:41:48;99463.85;;;18.55;34.08
67803;BME280;54601;51.378;-1.342;2022-12-20T10:44:16;99467.43;;;18.55;34.12
67803;BME280;54601;51.378;-1.342;2022-12-20T10:46:38;99467.37;;;18.57;34.01
67803;BME280;54601;51.378;-1.342;2022-12-20T10:48:57;99464.03;;;18.59;34.00
67803;BME280;54601;51.378;-1.342;2022-12-20T10:51:22;99463.08;;;18.55;33.99
67803;BME280;54601;51.378;-1.342;2022-12-20T10:53:52;99461.61;;;18.52;34.07
67803;BME280;54601;51.378;-1.342;2022-12-20T10:56:18;99463.06;;;18.55;34.03
67803;BME280;54601;51.378;-1.342;2022-12-20T10:58:38;99461.49;;;18.54;33.93
67803;BME280;54601;51.378;-1.342;2022-12-20T11:01:05;99463.05;;;18.53;33.76
67803;BME280;54601;51.378;-1.342;2022-12-20T11:03:28;99462.20;;;18.46;34.01
67803;BME280;54601;51.378;-1.342;2022-12-20T11:05:56;99459.49;;;18.50;33.98
67803;BME280;54601;51.378;-1.342;2022-12-20T11:08:21;99458.57;;;18.46;34.04
67803;BME280;54601;51.378;-1.342;2022-12-20T11:10:44;99461.09;;;18.51;33.94
67803;BME280;54601;51.378;-1.342;2022-12-20T11:13:18;99458.95;;;18.59;33.89
67803;BME280;54601;51.378;-1.342;2022-12-20T11:15:35;99461.82;;;18.12;33.74
67803;BME280;54601;51.378;-1.342;2022-12-20T11:18:03;99461.11;;;18.29;33.90
67803;BME280;54601;51.378;-1.342;2022-12-20T11:20:32;99466.04;;;18.27;33.90
67803;BME280;54601;51.378;-1.342;2022-12-20T11:22:57;99471.86;;;18.33;33.80
67803;BME280;54601;51.378;-1.342;2022-12-20T11:25:27;99477.74;;;18.27;33.86
67803;BME280;54601;51.378;-1.342;2022-12-20T11:27:46;99482.98;;;18.26;33.83
67803;BME280;54601;51.378;-1.342;2022-12-20T11:30:11;99479.32;;;18.51;33.83
67803;BME280;54601;51.378;-1.342;2022-12-20T11:32:44;99478.20;;;18.27;33.68
67803;BME280;54601;51.378;-1.342;2022-12-20T11:35:02;99482.13;;;18.21;33.81
67803;BME280;54601;51.378;-1.342;2022-12-20T11:37:22;99475.76;;;18.49;33.67
67803;BME280;54601;51.378;-1.342;2022-12-20T11:42:19;99471.56;;;18.53;33.58
67803;BME280;54601;51.378;-1.342;2022-12-20T11:44:48;99469.83;;;18.37;33.48
67803;BME280;54601;51.378;-1.342;2022-12-20T11:47:16;99465.42;;;18.40;33.69
67803;BME280;54601;51.378;-1.342;2022-12-20T11:49:41;99462.05;;;18.21;33.62
67803;BME280;54601;51.378;-1.342;2022-12-20T11:51:57;99458.91;;;18.19;33.66
67803;BME280;54601;51.378;-1.342;2022-12-20T11:54:22;99456.23;;;18.42;33.58
67803;BME280;54601;51.378;-1.342;2022-12-20T11:56:43;99454.49;;;18.40;33.59
67803;BME280;54601;51.378;-1.342;2022-12-20T11:59:14;99446.92;;;18.33;33.66
67803;BME280;54601;51.378;-1.342;2022-12-20T12:01:38;99444.49;;;18.27;33.76
67803;BME280;54601;51.378;-1.342;2022-12-20T12:04:06;99443.92;;;18.15;33.65
67803;BME280;54601;51.378;-1.342;2022-12-20T12:06:26;99447.31;;;18.35;33.64
67803;BME280;54601;51.378;-1.342;2022-12-20T12:08:54;99449.65;;;18.25;33.73
67803;BME280;54601;51.378;-1.342;2022-12-20T12:11:17;99452.82;;;17.95;33.82
67803;BME280;54601;51.378;-1.342;2022-12-20T12:13:39;99452.66;;;17.91;33.80
67803;BME280;54601;51.378;-1.342;2022-12-20T12:16:07;99450.54;;;18.04;33.69
67803;BME280;54601;51.378;-1.342;2022-12-20T12:18:30;99445.82;;;17.64;34.20
67803;BME280;54601;51.378;-1.342;2022-12-20T12:20:59;99442.89;;;18.26;33.68
67803;BME280;54601;51.378;-1.342;2022-12-20T12:23:23;99443.72;;;17.99;33.73
67803;BME280;54601;51.378;-1.342;2022-12-20T12:25:44;99445.56;;;18.26;33.61
67803;BME280;54601;51.378;-1.342;2022-12-20T12:28:11;99446.20;;;17.80;33.86
67803;BME280;54601;51.378;-1.342;2022-12-20T12:30:38;99447.99;;;18.08;33.82
67803;BME280;54601;51.378;-1.342;2022-12-20T12:33:03;99443.61;;;17.94;34.03
67803;BME280;54601;51.378;-1.342;2022-12-20T12:37:55;99444.61;;;17.96;33.70
67803;BME280;54601;51.378;-1.342;2022-12-20T12:45:13;99443.43;;;18.04;34.19
67803;BME280;54601;51.378;-1.342;2022-12-20T12:47:36;99444.56;;;17.72;33.85
67803;BME280;54601;51.378;-1.342;2022-12-20T12:49:56;99443.62;;;17.08;34.74
67803;BME280;54601;51.378;-1.342;2022-12-20T12:52:34;99445.78;;;17.74;34.14
67803;BME280;54601;51.378;-1.342;2022-12-20T12:54:47;99449.26;;;17.69;34.23